BEU weather

Bedourie Airport
Queensland, Australia

Public forecast

Using degrees Celsius for public forecast. Weather courtesy of forecast.io.

METAR (pilot weather report)

Closest report is Birdsville Airport, 93.3 nm (172.9 km) S. Retrieved 2019/04/22 01:00 UTC (41 minutes ago):

YBDV 220100Z AUTO 19010KT //// // ////// 23/14 Q1018

TAF (pilot weather forecast)

Forecast is more than 12 hours old.

Closest forecast is Mount Isa Airport, 221.1 nm (409.5 km) N. Retrieved 2019/04/21 00:03 UTC (1 day ago):

TAF TAF YBMA 212227Z 2200/2212 15010KT CAVOK